sensor_id;sensor_type;location;lat;lon;timestamp;P1;durP1;ratioP1;P2;durP2;ratioP2
19183;SDS011;9724;51.194;6.856;2024-01-10T00:01:41;14.60;;;6.50;;
19183;SDS011;9724;51.194;6.856;2024-01-10T00:04:07;11.83;;;6.13;;
19183;SDS011;9724;51.194;6.856;2024-01-10T00:06:33;17.53;;;6.83;;
19183;SDS011;9724;51.194;6.856;2024-01-10T00:09:00;16.10;;;6.67;;
19183;SDS011;9724;51.194;6.856;2024-01-10T00:11:27;12.47;;;6.17;;
19183;SDS011;9724;51.194;6.856;2024-01-10T00:13:53;18.43;;;7.13;;
19183;SDS011;9724;51.194;6.856;2024-01-10T00:16:25;14.10;;;6.20;;
19183;SDS011;9724;51.194;6.856;2024-01-10T00:18:51;15.13;;;7.10;;
19183;SDS011;9724;51.194;6.856;2024-01-10T00:21:18;15.07;;;5.77;;
19183;SDS011;9724;51.194;6.856;2024-01-10T00:23:44;17.63;;;6.63;;
19183;SDS011;9724;51.194;6.856;2024-01-10T00:26:10;16.17;;;6.80;;
19183;SDS011;9724;51.194;6.856;2024-01-10T00:28:37;18.53;;;6.73;;
19183;SDS011;9724;51.194;6.856;2024-01-10T00:31:04;12.60;;;6.13;;
19183;SDS011;9724;51.194;6.856;2024-01-10T00:33:30;18.37;;;6.77;;
19183;SDS011;9724;51.194;6.856;2024-01-10T00:35:57;15.47;;;5.90;;
19183;SDS011;9724;51.194;6.856;2024-01-10T00:38:23;14.00;;;6.70;;
19183;SDS011;9724;51.194;6.856;2024-01-10T00:40:49;15.17;;;6.90;;
19183;SDS011;9724;51.194;6.856;2024-01-10T00:43:16;15.30;;;6.00;;
19183;SDS011;9724;51.194;6.856;2024-01-10T00:45:43;13.27;;;5.93;;
19183;SDS011;9724;51.194;6.856;2024-01-10T00:48:09;14.37;;;6.17;;
19183;SDS011;9724;51.194;6.856;2024-01-10T00:50:36;17.27;;;6.67;;
19183;SDS011;9724;51.194;6.856;2024-01-10T00:53:02;16.37;;;6.53;;
19183;SDS011;9724;51.194;6.856;2024-01-10T00:55:28;16.30;;;6.97;;
19183;SDS011;9724;51.194;6.856;2024-01-10T00:57:55;15.50;;;6.63;;
19183;SDS011;9724;51.194;6.856;2024-01-10T01:00:21;18.60;;;6.40;;
19183;SDS011;9724;51.194;6.856;2024-01-10T01:02:48;14.30;;;6.30;;
19183;SDS011;9724;51.194;6.856;2024-01-10T01:05:14;12.17;;;5.87;;
19183;SDS011;9724;51.194;6.856;2024-01-10T01:07:41;12.60;;;6.10;;
19183;SDS011;9724;51.194;6.856;2024-01-10T01:10:07;13.27;;;6.00;;
19183;SDS011;9724;51.194;6.856;2024-01-10T01:12:34;13.50;;;6.40;;
19183;SDS011;9724;51.194;6.856;2024-01-10T01:15:00;15.93;;;6.13;;
19183;SDS011;9724;51.194;6.856;2024-01-10T01:17:27;17.50;;;6.53;;
19183;SDS011;9724;51.194;6.856;2024-01-10T01:19:54;13.20;;;5.93;;
19183;SDS011;9724;51.194;6.856;2024-01-10T01:22:20;15.60;;;7.00;;
19183;SDS011;9724;51.194;6.856;2024-01-10T01:24:46;15.67;;;6.53;;
19183;SDS011;9724;51.194;6.856;2024-01-10T01:27:13;13.03;;;6.27;;
19183;SDS011;9724;51.194;6.856;2024-01-10T01:29:39;14.17;;;6.50;;
19183;SDS011;9724;51.194;6.856;2024-01-10T01:32:05;13.83;;;6.23;;
19183;SDS011;9724;51.194;6.856;2024-01-10T01:34:32;18.97;;;6.90;;
19183;SDS011;9724;51.194;6.856;2024-01-10T01:36:59;17.47;;;6.37;;
19183;SDS011;9724;51.194;6.856;2024-01-10T01:39:26;17.33;;;6.90;;
19183;SDS011;9724;51.194;6.856;2024-01-10T01:41:53;18.23;;;6.83;;
19183;SDS011;9724;51.194;6.856;2024-01-10T01:44:19;14.37;;;6.00;;
19183;SDS011;9724;51.194;6.856;2024-01-10T01:46:45;16.60;;;6.20;;
19183;SDS011;9724;51.194;6.856;2024-01-10T01:49:12;13.13;;;6.57;;
19183;SDS011;9724;51.194;6.856;2024-01-10T01:51:38;14.77;;;6.30;;
19183;SDS011;9724;51.194;6.856;2024-01-10T01:54:06;17.30;;;7.20;;
19183;SDS011;9724;51.194;6.856;2024-01-10T01:56:33;15.20;;;6.17;;
19183;SDS011;9724;51.194;6.856;2024-01-10T01:59:01;17.80;;;6.17;;
19183;SDS011;9724;51.194;6.856;2024-01-10T02:01:28;14.20;;;6.03;;
19183;SDS011;9724;51.194;6.856;2024-01-10T02:03:54;14.60;;;6.20;;
19183;SDS011;9724;51.194;6.856;2024-01-10T02:06:21;16.23;;;6.60;;
19183;SDS011;9724;51.194;6.856;2024-01-10T02:08:47;12.17;;;5.73;;
19183;SDS011;9724;51.194;6.856;2024-01-10T02:11:14;15.03;;;5.73;;
19183;SDS011;9724;51.194;6.856;2024-01-10T02:13:41;13.40;;;5.80;;
19183;SDS011;9724;51.194;6.856;2024-01-10T02:16:07;16.17;;;6.30;;
19183;SDS011;9724;51.194;6.856;2024-01-10T02:18:34;13.67;;;6.27;;
19183;SDS011;9724;51.194;6.856;2024-01-10T02:21:01;12.50;;;6.03;;
19183;SDS011;9724;51.194;6.856;2024-01-10T02:23:27;13.67;;;6.67;;
19183;SDS011;9724;51.194;6.856;2024-01-10T02:25:54;15.43;;;5.90;;
19183;SDS011;9724;51.194;6.856;2024-01-10T02:28:20;15.70;;;6.13;;
19183;SDS011;9724;51.194;6.856;2024-01-10T02:30:48;13.10;;;6.10;;
19183;SDS011;9724;51.194;6.856;2024-01-10T02:33:15;18.13;;;5.93;;
19183;SDS011;9724;51.194;6.856;2024-01-10T02:35:41;14.10;;;6.00;;
19183;SDS011;9724;51.194;6.856;2024-01-10T02:38:07;17.30;;;6.60;;
19183;SDS011;9724;51.194;6.856;2024-01-10T02:40:33;12.43;;;6.23;;
19183;SDS011;9724;51.194;6.856;2024-01-10T02:43:00;14.13;;;6.43;;
19183;SDS011;9724;51.194;6.856;2024-01-10T02:45:27;14.27;;;6.30;;
19183;SDS011;9724;51.194;6.856;2024-01-10T02:47:53;16.43;;;5.97;;
19183;SDS011;9724;51.194;6.856;2024-01-10T02:50:19;13.53;;;5.43;;
19183;SDS011;9724;51.194;6.856;2024-01-10T02:52:45;13.00;;;6.20;;
19183;SDS011;9724;51.194;6.856;2024-01-10T02:55:12;14.13;;;6.13;;
19183;SDS011;9724;51.194;6.856;2024-01-10T02:57:38;17.73;;;6.67;;
19183;SDS011;9724;51.194;6.856;2024-01-10T03:00:06;15.43;;;6.63;;
19183;SDS011;9724;51.194;6.856;2024-01-10T03:02:33;15.97;;;6.43;;
19183;SDS011;9724;51.194;6.856;2024-01-10T03:04:59;18.43;;;6.90;;
19183;SDS011;9724;51.194;6.856;2024-01-10T03:07:26;13.63;;;6.70;;
19183;SDS011;9724;51.194;6.856;2024-01-10T03:09:52;15.27;;;6.63;;
19183;SDS011;9724;51.194;6.856;2024-01-10T03:12:18;13.53;;;5.33;;
19183;SDS011;9724;51.194;6.856;2024-01-10T03:14:44;15.50;;;6.27;;
19183;SDS011;9724;51.194;6.856;2024-01-10T03:17:11;14.87;;;6.27;;
19183;SDS011;9724;51.194;6.856;2024-01-10T03:19:38;11.80;;;6.00;;
19183;SDS011;9724;51.194;6.856;2024-01-10T03:22:08;13.33;;;5.87;;
19183;SDS011;9724;51.194;6.856;2024-01-10T03:24:34;14.93;;;6.23;;
19183;SDS011;9724;51.194;6.856;2024-01-10T03:27:00;13.17;;;5.57;;
19183;SDS011;9724;51.194;6.856;2024-01-10T03:29:26;10.87;;;5.50;;
19183;SDS011;9724;51.194;6.856;2024-01-10T03:31:52;12.73;;;6.40;;
19183;SDS011;9724;51.194;6.856;2024-01-10T03:34:19;15.63;;;5.63;;
19183;SDS011;9724;51.194;6.856;2024-01-10T03:36:46;11.20;;;4.90;;
19183;SDS011;9724;51.194;6.856;2024-01-10T03:39:12;17.43;;;7.07;;
19183;SDS011;9724;51.194;6.856;2024-01-10T03:41:38;15.87;;;6.70;;
19183;SDS011;9724;51.194;6.856;2024-01-10T03:44:04;14.07;;;6.47;;
19183;SDS011;9724;51.194;6.856;2024-01-10T03:46:31;13.87;;;5.67;;
19183;SDS011;9724;51.194;6.856;2024-01-10T03:48:57;16.37;;;6.50;;
19183;SDS011;9724;51.194;6.856;2024-01-10T03:51:24;13.37;;;6.23;;
19183;SDS011;9724;51.194;6.856;2024-01-10T03:53:50;12.57;;;5.50;;
19183;SDS011;9724;51.194;6.856;2024-01-10T03:56:17;13.33;;;5.97;;
19183;SDS011;9724;51.194;6.856;2024-01-10T03:58:44;19.60;;;5.60;;
19183;SDS011;9724;51.194;6.856;2024-01-10T04:01:10;16.23;;;6.63;;
19183;SDS011;9724;51.194;6.856;2024-01-10T04:03:36;15.03;;;6.73;;
19183;SDS011;9724;51.194;6.856;2024-01-10T04:06:04;13.97;;;5.57;;
19183;SDS011;9724;51.194;6.856;2024-01-10T04:08:31;11.40;;;4.87;;
19183;SDS011;9724;51.194;6.856;2024-01-10T04:10:58;18.50;;;6.50;;
19183;SDS011;9724;51.194;6.856;2024-01-10T04:13:24;15.20;;;6.20;;
19183;SDS011;9724;51.194;6.856;2024-01-10T04:15:51;9.90;;;4.87;;
19183;SDS011;9724;51.194;6.856;2024-01-10T04:18:17;19.47;;;6.60;;
19183;SDS011;9724;51.194;6.856;2024-01-10T04:20:43;11.73;;;5.90;;
19183;SDS011;9724;51.194;6.856;2024-01-10T04:23:10;12.20;;;4.70;;
19183;SDS011;9724;51.194;6.856;2024-01-10T04:25:37;11.10;;;5.93;;
19183;SDS011;9724;51.194;6.856;2024-01-10T04:28:03;14.70;;;6.47;;
19183;SDS011;9724;51.194;6.856;2024-01-10T04:30:30;17.13;;;6.87;;
19183;SDS011;9724;51.194;6.856;2024-01-10T04:32:56;14.60;;;6.53;;
19183;SDS011;9724;51.194;6.856;2024-01-10T04:35:23;12.73;;;6.20;;
19183;SDS011;9724;51.194;6.856;2024-01-10T04:37:49;16.70;;;6.40;;
19183;SDS011;9724;51.194;6.856;2024-01-10T04:40:15;14.27;;;6.40;;
19183;SDS011;9724;51.194;6.856;2024-01-10T04:42:42;15.73;;;6.53;;
19183;SDS011;9724;51.194;6.856;2024-01-10T04:45:09;13.50;;;6.40;;
19183;SDS011;9724;51.194;6.856;2024-01-10T04:47:35;14.63;;;6.07;;
19183;SDS011;9724;51.194;6.856;2024-01-10T04:50:01;14.70;;;7.00;;
19183;SDS011;9724;51.194;6.856;2024-01-10T04:52:28;14.47;;;5.27;;
19183;SDS011;9724;51.194;6.856;2024-01-10T04:54:54;16.80;;;7.43;;
19183;SDS011;9724;51.194;6.856;2024-01-10T04:57:20;14.93;;;7.00;;
19183;SDS011;9724;51.194;6.856;2024-01-10T04:59:47;13.63;;;6.63;;
19183;SDS011;9724;51.194;6.856;2024-01-10T05:02:14;14.87;;;6.80;;
19183;SDS011;9724;51.194;6.856;2024-01-10T05:04:40;17.57;;;6.53;;
19183;SDS011;9724;51.194;6.856;2024-01-10T05:07:07;18.87;;;6.23;;
19183;SDS011;9724;51.194;6.856;2024-01-10T05:09:33;18.80;;;6.57;;
19183;SDS011;9724;51.194;6.856;2024-01-10T05:11:59;14.30;;;5.90;;
19183;SDS011;9724;51.194;6.856;2024-01-10T05:14:25;15.50;;;6.60;;
19183;SDS011;9724;51.194;6.856;2024-01-10T05:16:52;14.70;;;6.97;;
19183;SDS011;9724;51.194;6.856;2024-01-10T05:19:19;18.27;;;6.87;;
19183;SDS011;9724;51.194;6.856;2024-01-10T05:21:45;14.07;;;6.67;;
19183;SDS011;9724;51.194;6.856;2024-01-10T05:24:11;16.13;;;6.30;;
19183;SDS011;9724;51.194;6.856;2024-01-10T05:26:38;17.03;;;6.70;;
19183;SDS011;9724;51.194;6.856;2024-01-10T05:29:04;18.50;;;7.07;;
19183;SDS011;9724;51.194;6.856;2024-01-10T05:31:30;15.60;;;6.97;;
19183;SDS011;9724;51.194;6.856;2024-01-10T05:33:57;11.03;;;5.73;;
19183;SDS011;9724;51.194;6.856;2024-01-10T05:36:24;13.80;;;6.40;;
19183;SDS011;9724;51.194;6.856;2024-01-10T05:38:50;13.77;;;6.57;;
19183;SDS011;9724;51.194;6.856;2024-01-10T05:41:17;16.83;;;6.10;;
19183;SDS011;9724;51.194;6.856;2024-01-10T05:43:43;11.97;;;5.60;;
19183;SDS011;9724;51.194;6.856;2024-01-10T05:46:10;19.40;;;6.83;;
19183;SDS011;9724;51.194;6.856;2024-01-10T05:48:36;14.73;;;6.33;;
19183;SDS011;9724;51.194;6.856;2024-01-10T05:51:03;15.23;;;6.70;;
19183;SDS011;9724;51.194;6.856;2024-01-10T05:53:30;15.50;;;6.03;;
19183;SDS011;9724;51.194;6.856;2024-01-10T05:55:56;19.63;;;6.67;;
19183;SDS011;9724;51.194;6.856;2024-01-10T05:58:22;13.23;;;5.93;;
19183;SDS011;9724;51.194;6.856;2024-01-10T06:00:48;20.47;;;6.77;;
19183;SDS011;9724;51.194;6.856;2024-01-10T06:03:15;16.43;;;7.13;;
19183;SDS011;9724;51.194;6.856;2024-01-10T06:05:41;14.30;;;5.70;;
19183;SDS011;9724;51.194;6.856;2024-01-10T06:08:08;19.30;;;6.40;;
19183;SDS011;9724;51.194;6.856;2024-01-10T06:10:35;15.87;;;6.30;;
19183;SDS011;9724;51.194;6.856;2024-01-10T06:13:03;14.30;;;6.33;;
19183;SDS011;9724;51.194;6.856;2024-01-10T06:15:30;13.87;;;6.33;;
19183;SDS011;9724;51.194;6.856;2024-01-10T06:17:56;16.87;;;6.77;;
19183;SDS011;9724;51.194;6.856;2024-01-10T06:20:23;13.07;;;6.07;;
19183;SDS011;9724;51.194;6.856;2024-01-10T06:22:49;19.97;;;6.87;;
19183;SDS011;9724;51.194;6.856;2024-01-10T06:25:16;14.57;;;6.50;;
19183;SDS011;9724;51.194;6.856;2024-01-10T06:27:42;16.17;;;7.10;;
19183;SDS011;9724;51.194;6.856;2024-01-10T06:30:09;21.00;;;7.17;;
19183;SDS011;9724;51.194;6.856;2024-01-10T06:32:36;14.27;;;6.30;;
19183;SDS011;9724;51.194;6.856;2024-01-10T06:35:02;14.40;;;6.67;;
19183;SDS011;9724;51.194;6.856;2024-01-10T06:37:30;18.00;;;7.37;;
19183;SDS011;9724;51.194;6.856;2024-01-10T06:39:59;17.63;;;7.50;;
19183;SDS011;9724;51.194;6.856;2024-01-10T06:42:26;16.47;;;6.73;;
19183;SDS011;9724;51.194;6.856;2024-01-10T06:44:52;16.90;;;7.17;;
19183;SDS011;9724;51.194;6.856;2024-01-10T06:47:19;15.03;;;7.03;;
19183;SDS011;9724;51.194;6.856;2024-01-10T06:49:46;13.73;;;6.87;;
19183;SDS011;9724;51.194;6.856;2024-01-10T06:52:13;15.20;;;7.37;;
19183;SDS011;9724;51.194;6.856;2024-01-10T06:54:39;12.70;;;6.60;;
19183;SDS011;9724;51.194;6.856;2024-01-10T06:57:06;15.43;;;7.07;;
19183;SDS011;9724;51.194;6.856;2024-01-10T06:59:33;16.03;;;6.97;;
19183;SDS011;9724;51.194;6.856;2024-01-10T07:01:59;14.20;;;7.00;;
19183;SDS011;9724;51.194;6.856;2024-01-10T07:04:27;17.77;;;7.87;;
19183;SDS011;9724;51.194;6.856;2024-01-10T07:06:53;23.33;;;9.73;;
19183;SDS011;9724;51.194;6.856;2024-01-10T07:09:19;22.27;;;8.23;;
19183;SDS011;9724;51.194;6.856;2024-01-10T07:11:46;22.57;;;8.93;;
19183;SDS011;9724;51.194;6.856;2024-01-10T07:14:13;21.63;;;7.10;;
19183;SDS011;9724;51.194;6.856;2024-01-10T07:16:40;19.87;;;8.10;;
19183;SDS011;9724;51.194;6.856;2024-01-10T07:19:08;18.17;;;7.83;;
19183;SDS011;9724;51.194;6.856;2024-01-10T07:21:34;16.43;;;7.57;;
19183;SDS011;9724;51.194;6.856;2024-01-10T07:24:00;17.90;;;7.60;;
19183;SDS011;9724;51.194;6.856;2024-01-10T07:26:30;16.97;;;7.23;;
19183;SDS011;9724;51.194;6.856;2024-01-10T07:28:57;23.00;;;8.23;;
19183;SDS011;9724;51.194;6.856;2024-01-10T07:31:23;17.30;;;7.93;;
19183;SDS011;9724;51.194;6.856;2024-01-10T07:33:50;15.63;;;7.43;;
19183;SDS011;9724;51.194;6.856;2024-01-10T07:36:16;16.00;;;7.17;;
19183;SDS011;9724;51.194;6.856;2024-01-10T07:38:43;16.67;;;7.23;;
19183;SDS011;9724;51.194;6.856;2024-01-10T07:41:09;33.87;;;10.17;;
19183;SDS011;9724;51.194;6.856;2024-01-10T07:43:37;16.40;;;8.03;;
19183;SDS011;9724;51.194;6.856;2024-01-10T07:46:03;21.00;;;8.03;;
19183;SDS011;9724;51.194;6.856;2024-01-10T07:48:29;18.17;;;8.10;;
19183;SDS011;9724;51.194;6.856;2024-01-10T07:50:57;17.63;;;7.40;;
19183;SDS011;9724;51.194;6.856;2024-01-10T07:53:23;19.23;;;7.90;;
19183;SDS011;9724;51.194;6.856;2024-01-10T07:55:52;19.23;;;7.57;;
19183;SDS011;9724;51.194;6.856;2024-01-10T07:58:18;19.37;;;7.90;;
19183;SDS011;9724;51.194;6.856;2024-01-10T08:00:45;19.17;;;7.70;;
19183;SDS011;9724;51.194;6.856;2024-01-10T08:03:12;20.70;;;7.90;;
19183;SDS011;9724;51.194;6.856;2024-01-10T08:05:38;16.93;;;7.90;;
19183;SDS011;9724;51.194;6.856;2024-01-10T08:08:05;18.30;;;7.73;;
19183;SDS011;9724;51.194;6.856;2024-01-10T08:10:32;20.73;;;7.27;;
19183;SDS011;9724;51.194;6.856;2024-01-10T08:12:58;25.93;;;8.77;;
19183;SDS011;9724;51.194;6.856;2024-01-10T08:15:25;18.83;;;7.77;;
19183;SDS011;9724;51.194;6.856;2024-01-10T08:17:51;18.00;;;7.70;;
19183;SDS011;9724;51.194;6.856;2024-01-10T08:20:18;22.27;;;8.37;;
19183;SDS011;9724;51.194;6.856;2024-01-10T08:22:46;19.40;;;7.70;;
19183;SDS011;9724;51.194;6.856;2024-01-10T08:25:13;23.80;;;7.97;;
19183;SDS011;9724;51.194;6.856;2024-01-10T08:27:41;19.90;;;7.87;;
19183;SDS011;9724;51.194;6.856;2024-01-10T08:30:10;21.03;;;8.57;;
19183;SDS011;9724;51.194;6.856;2024-01-10T08:32:36;17.53;;;7.47;;
19183;SDS011;9724;51.194;6.856;2024-01-10T08:35:03;19.93;;;8.30;;
19183;SDS011;9724;51.194;6.856;2024-01-10T08:37:30;20.00;;;7.73;;
19183;SDS011;9724;51.194;6.856;2024-01-10T08:39:57;23.07;;;8.10;;
19183;SDS011;9724;51.194;6.856;2024-01-10T08:42:23;20.97;;;8.03;;
19183;SDS011;9724;51.194;6.856;2024-01-10T08:44:50;17.67;;;7.47;;
19183;SDS011;9724;51.194;6.856;2024-01-10T08:47:16;24.27;;;8.23;;
19183;SDS011;9724;51.194;6.856;2024-01-10T08:49:42;19.80;;;8.17;;
19183;SDS011;9724;51.194;6.856;2024-01-10T08:52:08;17.90;;;7.90;;
19183;SDS011;9724;51.194;6.856;2024-01-10T08:54:35;22.30;;;8.20;;
19183;SDS011;9724;51.194;6.856;2024-01-10T08:57:01;16.47;;;8.10;;
19183;SDS011;9724;51.194;6.856;2024-01-10T08:59:29;21.13;;;8.63;;
19183;SDS011;9724;51.194;6.856;2024-01-10T09:01:56;19.80;;;8.37;;
19183;SDS011;9724;51.194;6.856;2024-01-10T09:04:22;20.27;;;7.93;;
19183;SDS011;9724;51.194;6.856;2024-01-10T09:06:48;32.00;;;8.47;;
19183;SDS011;9724;51.194;6.856;2024-01-10T09:09:14;18.63;;;7.90;;
19183;SDS011;9724;51.194;6.856;2024-01-10T09:11:41;18.10;;;8.37;;
19183;SDS011;9724;51.194;6.856;2024-01-10T09:14:11;24.40;;;8.73;;
19183;SDS011;9724;51.194;6.856;2024-01-10T09:16:38;19.80;;;8.43;;
19183;SDS011;9724;51.194;6.856;2024-01-10T09:19:04;21.03;;;8.20;;
19183;SDS011;9724;51.194;6.856;2024-01-10T09:21:34;24.10;;;9.40;;
19183;SDS011;9724;51.194;6.856;2024-01-10T09:24:00;19.10;;;8.70;;
19183;SDS011;9724;51.194;6.856;2024-01-10T09:26:43;20.00;;;9.03;;
19183;SDS011;9724;51.194;6.856;2024-01-10T09:29:09;22.80;;;8.10;;
19183;SDS011;9724;51.194;6.856;2024-01-10T09:31:36;20.87;;;8.40;;
19183;SDS011;9724;51.194;6.856;2024-01-10T09:34:03;18.90;;;7.20;;
19183;SDS011;9724;51.194;6.856;2024-01-10T09:36:29;22.87;;;8.70;;
19183;SDS011;9724;51.194;6.856;2024-01-10T09:38:55;20.10;;;8.50;;
19183;SDS011;9724;51.194;6.856;2024-01-10T09:41:21;26.77;;;8.70;;
19183;SDS011;9724;51.194;6.856;2024-01-10T09:43:49;18.33;;;8.33;;
19183;SDS011;9724;51.194;6.856;2024-01-10T09:46:15;18.67;;;8.00;;
19183;SDS011;9724;51.194;6.856;2024-01-10T09:48:43;20.37;;;8.43;;
19183;SDS011;9724;51.194;6.856;2024-01-10T09:51:10;25.80;;;8.97;;
19183;SDS011;9724;51.194;6.856;2024-01-10T09:53:37;19.27;;;8.50;;
19183;SDS011;9724;51.194;6.856;2024-01-10T09:56:06;21.10;;;8.13;;
19183;SDS011;9724;51.194;6.856;2024-01-10T09:58:35;19.13;;;8.60;;
19183;SDS011;9724;51.194;6.856;2024-01-10T10:01:05;23.37;;;8.97;;
19183;SDS011;9724;51.194;6.856;2024-01-10T10:03:32;17.43;;;8.40;;
19183;SDS011;9724;51.194;6.856;2024-01-10T10:06:02;23.07;;;8.10;;
19183;SDS011;9724;51.194;6.856;2024-01-10T10:08:30;18.77;;;7.73;;
19183;SDS011;9724;51.194;6.856;2024-01-10T10:10:56;17.67;;;8.13;;
19183;SDS011;9724;51.194;6.856;2024-01-10T10:13:26;19.83;;;7.93;;
19183;SDS011;9724;51.194;6.856;2024-01-10T10:15:59;15.30;;;7.73;;
19183;SDS011;9724;51.194;6.856;2024-01-10T10:18:26;19.00;;;8.43;;
19183;SDS011;9724;51.194;6.856;2024-01-10T10:21:06;18.67;;;8.20;;
19183;SDS011;9724;51.194;6.856;2024-01-10T10:23:33;15.30;;;7.60;;
19183;SDS011;9724;51.194;6.856;2024-01-10T10:26:02;20.43;;;7.70;;
19183;SDS011;9724;51.194;6.856;2024-01-10T10:28:36;15.17;;;6.90;;
19183;SDS011;9724;51.194;6.856;2024-01-10T10:31:02;15.37;;;7.10;;
19183;SDS011;9724;51.194;6.856;2024-01-10T10:33:28;15.17;;;6.73;;
19183;SDS011;9724;51.194;6.856;2024-01-10T10:35:58;16.77;;;6.47;;
19183;SDS011;9724;51.194;6.856;2024-01-10T10:38:24;12.93;;;6.43;;
19183;SDS011;9724;51.194;6.856;2024-01-10T10:40:51;14.03;;;6.70;;
19183;SDS011;9724;51.194;6.856;2024-01-10T10:43:18;16.57;;;6.70;;
19183;SDS011;9724;51.194;6.856;2024-01-10T10:45:46;15.87;;;7.23;;
19183;SDS011;9724;51.194;6.856;2024-01-10T10:48:14;14.80;;;6.77;;
19183;SDS011;9724;51.194;6.856;2024-01-10T10:50:43;13.50;;;6.80;;
19183;SDS011;9724;51.194;6.856;2024-01-10T10:53:16;16.23;;;7.23;;
19183;SDS011;9724;51.194;6.856;2024-01-10T10:55:44;16.90;;;6.73;;
19183;SDS011;9724;51.194;6.856;2024-01-10T10:58:12;17.53;;;6.77;;
19183;SDS011;9724;51.194;6.856;2024-01-10T11:00:39;16.83;;;6.90;;
19183;SDS011;9724;51.194;6.856;2024-01-10T11:03:06;22.67;;;7.40;;
19183;SDS011;9724;51.194;6.856;2024-01-10T11:05:33;18.20;;;7.33;;
19183;SDS011;9724;51.194;6.856;2024-01-10T11:08:01;17.17;;;7.53;;
19183;SDS011;9724;51.194;6.856;2024-01-10T11:10:30;19.33;;;6.77;;
19183;SDS011;9724;51.194;6.856;2024-01-10T11:13:03;16.23;;;7.60;;
19183;SDS011;9724;51.194;6.856;2024-01-10T11:15:51;19.93;;;7.83;;
19183;SDS011;9724;51.194;6.856;2024-01-10T11:18:32;20.77;;;7.00;;
19183;SDS011;9724;51.194;6.856;2024-01-10T11:21:11;15.20;;;7.53;;
19183;SDS011;9724;51.194;6.856;2024-01-10T11:23:46;12.50;;;6.37;;
19183;SDS011;9724;51.194;6.856;2024-01-10T11:26:14;15.17;;;6.77;;
19183;SDS011;9724;51.194;6.856;2024-01-10T11:28:41;23.53;;;6.77;;
19183;SDS011;9724;51.194;6.856;2024-01-10T11:31:08;14.47;;;6.63;;
19183;SDS011;9724;51.194;6.856;2024-01-10T11:33:35;18.40;;;7.83;;
19183;SDS011;9724;51.194;6.856;2024-01-10T11:36:05;15.33;;;6.47;;
19183;SDS011;9724;51.194;6.856;2024-01-10T11:38:32;19.07;;;7.40;;
19183;SDS011;9724;51.194;6.856;2024-01-10T11:40:58;19.53;;;7.37;;
19183;SDS011;9724;51.194;6.856;2024-01-10T11:43:24;14.50;;;7.10;;
19183;SDS011;9724;51.194;6.856;2024-01-10T11:45:51;16.43;;;7.23;;
19183;SDS011;9724;51.194;6.856;2024-01-10T11:48:25;20.17;;;7.47;;
19183;SDS011;9724;51.194;6.856;2024-01-10T11:50:53;18.03;;;7.47;;
19183;SDS011;9724;51.194;6.856;2024-01-10T11:56:08;19.90;;;7.63;;
19183;SDS011;9724;51.194;6.856;2024-01-10T11:58:51;21.83;;;7.60;;
19183;SDS011;9724;51.194;6.856;2024-01-10T12:01:19;16.60;;;7.70;;
19183;SDS011;9724;51.194;6.856;2024-01-10T12:03:46;19.63;;;7.50;;
19183;SDS011;9724;51.194;6.856;2024-01-10T12:06:33;18.57;;;7.93;;
19183;SDS011;9724;51.194;6.856;2024-01-10T12:09:01;20.67;;;8.30;;
19183;SDS011;9724;51.194;6.856;2024-01-10T12:11:33;16.47;;;8.20;;
19183;SDS011;9724;51.194;6.856;2024-01-10T12:14:00;20.00;;;8.83;;
19183;SDS011;9724;51.194;6.856;2024-01-10T12:16:27;17.40;;;7.80;;
19183;SDS011;9724;51.194;6.856;2024-01-10T12:18:54;20.17;;;8.67;;
19183;SDS011;9724;51.194;6.856;2024-01-10T12:21:21;22.13;;;10.27;;
19183;SDS011;9724;51.194;6.856;2024-01-10T12:23:47;25.77;;;10.13;;
19183;SDS011;9724;51.194;6.856;2024-01-10T12:26:14;27.07;;;9.23;;
19183;SDS011;9724;51.194;6.856;2024-01-10T12:28:40;25.17;;;8.03;;
19183;SDS011;9724;51.194;6.856;2024-01-10T12:31:08;15.67;;;7.30;;
19183;SDS011;9724;51.194;6.856;2024-01-10T12:33:35;16.53;;;7.70;;
19183;SDS011;9724;51.194;6.856;2024-01-10T12:36:03;15.50;;;7.43;;
19183;SDS011;9724;51.194;6.856;2024-01-10T12:38:31;17.33;;;8.10;;
19183;SDS011;9724;51.194;6.856;2024-01-10T12:40:57;13.07;;;7.53;;
19183;SDS011;9724;51.194;6.856;2024-01-10T12:43:24;17.70;;;8.03;;
19183;SDS011;9724;51.194;6.856;2024-01-10T12:46:01;18.67;;;8.20;;
19183;SDS011;9724;51.194;6.856;2024-01-10T12:48:29;17.70;;;8.17;;
19183;SDS011;9724;51.194;6.856;2024-01-10T12:50:56;17.50;;;8.47;;
19183;SDS011;9724;51.194;6.856;2024-01-10T12:53:26;18.93;;;7.87;;
19183;SDS011;9724;51.194;6.856;2024-01-10T12:55:54;17.83;;;8.00;;
19183;SDS011;9724;51.194;6.856;2024-01-10T12:58:20;25.03;;;8.57;;
19183;SDS011;9724;51.194;6.856;2024-01-10T13:00:47;20.83;;;8.00;;
19183;SDS011;9724;51.194;6.856;2024-01-10T13:03:13;18.40;;;8.23;;
19183;SDS011;9724;51.194;6.856;2024-01-10T13:05:39;21.47;;;8.30;;
19183;SDS011;9724;51.194;6.856;2024-01-10T13:08:06;15.97;;;8.43;;
19183;SDS011;9724;51.194;6.856;2024-01-10T13:10:33;24.10;;;8.57;;
19183;SDS011;9724;51.194;6.856;2024-01-10T13:12:59;24.80;;;8.73;;
19183;SDS011;9724;51.194;6.856;2024-01-10T13:15:25;16.03;;;7.80;;
19183;SDS011;9724;51.194;6.856;2024-01-10T13:17:52;19.73;;;8.03;;
19183;SDS011;9724;51.194;6.856;2024-01-10T13:20:18;20.60;;;8.37;;
19183;SDS011;9724;51.194;6.856;2024-01-10T13:22:44;20.87;;;8.33;;
19183;SDS011;9724;51.194;6.856;2024-01-10T13:25:12;19.53;;;8.17;;
19183;SDS011;9724;51.194;6.856;2024-01-10T13:27:38;19.57;;;8.23;;
19183;SDS011;9724;51.194;6.856;2024-01-10T13:30:05;16.27;;;7.83;;
19183;SDS011;9724;51.194;6.856;2024-01-10T13:32:32;17.73;;;8.20;;
19183;SDS011;9724;51.194;6.856;2024-01-10T13:34:58;21.13;;;8.00;;
19183;SDS011;9724;51.194;6.856;2024-01-10T13:37:24;17.63;;;7.97;;
19183;SDS011;9724;51.194;6.856;2024-01-10T13:39:54;18.90;;;8.30;;
19183;SDS011;9724;51.194;6.856;2024-01-10T13:42:21;23.57;;;8.20;;
19183;SDS011;9724;51.194;6.856;2024-01-10T13:44:48;19.47;;;8.03;;
19183;SDS011;9724;51.194;6.856;2024-01-10T13:47:16;20.53;;;8.63;;
19183;SDS011;9724;51.194;6.856;2024-01-10T13:49:43;19.53;;;8.63;;
19183;SDS011;9724;51.194;6.856;2024-01-10T13:52:10;23.07;;;7.77;;
19183;SDS011;9724;51.194;6.856;2024-01-10T13:54:36;18.27;;;8.90;;
19183;SDS011;9724;51.194;6.856;2024-01-10T13:57:02;22.37;;;8.63;;
19183;SDS011;9724;51.194;6.856;2024-01-10T13:59:29;19.33;;;9.20;;
19183;SDS011;9724;51.194;6.856;2024-01-10T14:01:56;15.57;;;8.37;;
19183;SDS011;9724;51.194;6.856;2024-01-10T14:04:22;26.13;;;8.70;;
19183;SDS011;9724;51.194;6.856;2024-01-10T14:06:49;16.00;;;8.53;;
19183;SDS011;9724;51.194;6.856;2024-01-10T14:09:16;24.53;;;8.73;;
19183;SDS011;9724;51.194;6.856;2024-01-10T14:11:43;23.73;;;9.27;;
19183;SDS011;9724;51.194;6.856;2024-01-10T14:14:10;16.37;;;8.43;;
19183;SDS011;9724;51.194;6.856;2024-01-10T14:16:37;20.93;;;8.50;;
19183;SDS011;9724;51.194;6.856;2024-01-10T14:19:03;18.87;;;8.50;;
19183;SDS011;9724;51.194;6.856;2024-01-10T14:21:29;23.87;;;7.97;;
19183;SDS011;9724;51.194;6.856;2024-01-10T14:23:57;23.27;;;8.67;;
19183;SDS011;9724;51.194;6.856;2024-01-10T14:26:24;19.80;;;9.23;;
19183;SDS011;9724;51.194;6.856;2024-01-10T14:28:51;24.30;;;10.10;;
19183;SDS011;9724;51.194;6.856;2024-01-10T14:31:20;31.43;;;9.10;;
19183;SDS011;9724;51.194;6.856;2024-01-10T14:34:04;25.37;;;9.50;;
19183;SDS011;9724;51.194;6.856;2024-01-10T14:36:36;23.40;;;10.13;;
19183;SDS011;9724;51.194;6.856;2024-01-10T14:39:03;35.60;;;10.57;;
19183;SDS011;9724;51.194;6.856;2024-01-10T14:41:29;22.87;;;10.53;;
19183;SDS011;9724;51.194;6.856;2024-01-10T14:43:56;34.50;;;10.97;;
19183;SDS011;9724;51.194;6.856;2024-01-10T14:46:22;26.37;;;10.50;;
19183;SDS011;9724;51.194;6.856;2024-01-10T14:48:48;28.97;;;10.63;;
19183;SDS011;9724;51.194;6.856;2024-01-10T14:51:15;22.90;;;10.07;;